sensor_id;sensor_type;location;lat;lon;timestamp;P1;durP1;ratioP1;P2;durP2;ratioP2
7511;SDS011;9999;48.780;9.146;2023-02-24T00:01:13;14.00;;;7.20;;
7511;SDS011;9999;48.780;9.146;2023-02-24T00:03:49;14.67;;;7.43;;
7511;SDS011;9999;48.780;9.146;2023-02-24T00:06:17;20.67;;;8.87;;
7511;SDS011;9999;48.780;9.146;2023-02-24T00:08:44;19.83;;;9.00;;
7511;SDS011;9999;48.780;9.146;2023-02-24T00:11:15;19.77;;;9.13;;
7511;SDS011;9999;48.780;9.146;2023-02-24T00:13:43;15.67;;;8.23;;
7511;SDS011;9999;48.780;9.146;2023-02-24T00:16:10;17.07;;;9.03;;
7511;SDS011;9999;48.780;9.146;2023-02-24T00:18:38;13.03;;;7.60;;
7511;SDS011;9999;48.780;9.146;2023-02-24T00:21:06;13.07;;;6.70;;
7511;SDS011;9999;48.780;9.146;2023-02-24T00:23:34;14.13;;;8.20;;
7511;SDS011;9999;48.780;9.146;2023-02-24T00:26:02;15.37;;;7.67;;
7511;SDS011;9999;48.780;9.146;2023-02-24T00:28:32;26.53;;;8.30;;
7511;SDS011;9999;48.780;9.146;2023-02-24T00:31:01;13.40;;;7.50;;
7511;SDS011;9999;48.780;9.146;2023-02-24T00:33:30;16.10;;;7.93;;
7511;SDS011;9999;48.780;9.146;2023-02-24T00:36:03;15.47;;;7.20;;
7511;SDS011;9999;48.780;9.146;2023-02-24T00:38:32;16.43;;;8.13;;
7511;SDS011;9999;48.780;9.146;2023-02-24T00:41:01;15.87;;;8.50;;
7511;SDS011;9999;48.780;9.146;2023-02-24T00:43:34;16.43;;;8.10;;
7511;SDS011;9999;48.780;9.146;2023-02-24T00:46:03;18.60;;;9.90;;
7511;SDS011;9999;48.780;9.146;2023-02-24T00:48:37;15.33;;;7.60;;
7511;SDS011;9999;48.780;9.146;2023-02-24T00:51:07;13.37;;;7.50;;
7511;SDS011;9999;48.780;9.146;2023-02-24T00:53:35;17.50;;;7.43;;
7511;SDS011;9999;48.780;9.146;2023-02-24T00:56:04;18.20;;;8.80;;
7511;SDS011;9999;48.780;9.146;2023-02-24T00:58:33;13.80;;;8.80;;
7511;SDS011;9999;48.780;9.146;2023-02-24T01:01:01;17.60;;;9.63;;
7511;SDS011;9999;48.780;9.146;2023-02-24T01:03:31;18.40;;;9.50;;
7511;SDS011;9999;48.780;9.146;2023-02-24T01:05:59;17.77;;;8.73;;
7511;SDS011;9999;48.780;9.146;2023-02-24T01:08:28;14.00;;;8.17;;
7511;SDS011;9999;48.780;9.146;2023-02-24T01:11:00;14.20;;;7.80;;
7511;SDS011;9999;48.780;9.146;2023-02-24T01:13:47;16.80;;;7.97;;
7511;SDS011;9999;48.780;9.146;2023-02-24T01:16:14;15.87;;;8.03;;
7511;SDS011;9999;48.780;9.146;2023-02-24T01:18:44;19.00;;;9.43;;
7511;SDS011;9999;48.780;9.146;2023-02-24T01:21:11;16.43;;;8.43;;
7511;SDS011;9999;48.780;9.146;2023-02-24T01:23:39;16.77;;;9.60;;
7511;SDS011;9999;48.780;9.146;2023-02-24T01:26:06;17.97;;;8.50;;
7511;SDS011;9999;48.780;9.146;2023-02-24T01:28:34;24.20;;;9.70;;
7511;SDS011;9999;48.780;9.146;2023-02-24T01:31:03;17.40;;;8.33;;
7511;SDS011;9999;48.780;9.146;2023-02-24T01:33:31;18.07;;;9.47;;
7511;SDS011;9999;48.780;9.146;2023-02-24T01:36:08;12.87;;;7.60;;
7511;SDS011;9999;48.780;9.146;2023-02-24T01:38:37;11.97;;;6.67;;
7511;SDS011;9999;48.780;9.146;2023-02-24T01:41:07;13.73;;;7.77;;
7511;SDS011;9999;48.780;9.146;2023-02-24T01:43:55;16.20;;;8.47;;
7511;SDS011;9999;48.780;9.146;2023-02-24T01:46:26;12.80;;;8.73;;
7511;SDS011;9999;48.780;9.146;2023-02-24T01:48:56;24.30;;;8.50;;
7511;SDS011;9999;48.780;9.146;2023-02-24T01:51:27;13.63;;;7.90;;
7511;SDS011;9999;48.780;9.146;2023-02-24T01:53:57;15.40;;;8.80;;
7511;SDS011;9999;48.780;9.146;2023-02-24T01:56:24;12.50;;;7.43;;
7511;SDS011;9999;48.780;9.146;2023-02-24T01:58:54;15.30;;;7.93;;
7511;SDS011;9999;48.780;9.146;2023-02-24T02:01:21;21.87;;;7.87;;
7511;SDS011;9999;48.780;9.146;2023-02-24T02:03:49;14.10;;;6.63;;
7511;SDS011;9999;48.780;9.146;2023-02-24T02:06:22;13.37;;;7.80;;
7511;SDS011;9999;48.780;9.146;2023-02-24T02:08:49;13.70;;;7.97;;
7511;SDS011;9999;48.780;9.146;2023-02-24T02:11:17;11.67;;;7.43;;
7511;SDS011;9999;48.780;9.146;2023-02-24T02:13:45;11.50;;;7.20;;
7511;SDS011;9999;48.780;9.146;2023-02-24T02:16:30;11.97;;;7.27;;
7511;SDS011;9999;48.780;9.146;2023-02-24T02:19:27;16.67;;;7.73;;
7511;SDS011;9999;48.780;9.146;2023-02-24T02:22:34;14.00;;;8.03;;
7511;SDS011;9999;48.780;9.146;2023-02-24T02:25:14;13.20;;;7.30;;
7511;SDS011;9999;48.780;9.146;2023-02-24T02:28:01;14.67;;;7.83;;
7511;SDS011;9999;48.780;9.146;2023-02-24T02:33:50;14.80;;;7.90;;
7511;SDS011;9999;48.780;9.146;2023-02-24T02:36:32;15.23;;;7.60;;
7511;SDS011;9999;48.780;9.146;2023-02-24T02:39:10;15.63;;;6.80;;
7511;SDS011;9999;48.780;9.146;2023-02-24T02:41:44;17.63;;;7.23;;
7511;SDS011;9999;48.780;9.146;2023-02-24T02:44:18;12.37;;;7.33;;
7511;SDS011;9999;48.780;9.146;2023-02-24T02:46:50;17.27;;;8.37;;
7511;SDS011;9999;48.780;9.146;2023-02-24T02:49:24;15.73;;;8.40;;
7511;SDS011;9999;48.780;9.146;2023-02-24T02:52:00;16.93;;;8.60;;
7511;SDS011;9999;48.780;9.146;2023-02-24T02:54:34;15.93;;;8.50;;
7511;SDS011;9999;48.780;9.146;2023-02-24T02:57:12;12.50;;;7.80;;
7511;SDS011;9999;48.780;9.146;2023-02-24T02:59:46;10.97;;;6.93;;
7511;SDS011;9999;48.780;9.146;2023-02-24T03:02:18;17.70;;;9.90;;
7511;SDS011;9999;48.780;9.146;2023-02-24T03:04:54;13.90;;;8.63;;
7511;SDS011;9999;48.780;9.146;2023-02-24T03:07:24;13.53;;;7.97;;
7511;SDS011;9999;48.780;9.146;2023-02-24T03:09:56;16.60;;;9.33;;
7511;SDS011;9999;48.780;9.146;2023-02-24T03:12:28;14.00;;;8.00;;
7511;SDS011;9999;48.780;9.146;2023-02-24T03:14:58;15.93;;;8.53;;
7511;SDS011;9999;48.780;9.146;2023-02-24T03:17:31;18.20;;;8.53;;
7511;SDS011;9999;48.780;9.146;2023-02-24T03:20:08;15.73;;;8.43;;
7511;SDS011;9999;48.780;9.146;2023-02-24T03:22:42;19.10;;;10.27;;
7511;SDS011;9999;48.780;9.146;2023-02-24T03:25:13;18.10;;;8.93;;
7511;SDS011;9999;48.780;9.146;2023-02-24T03:27:42;17.90;;;7.93;;
7511;SDS011;9999;48.780;9.146;2023-02-24T03:30:15;15.37;;;7.90;;
7511;SDS011;9999;48.780;9.146;2023-02-24T03:32:48;15.77;;;8.73;;
7511;SDS011;9999;48.780;9.146;2023-02-24T03:35:26;13.73;;;7.40;;
7511;SDS011;9999;48.780;9.146;2023-02-24T03:37:55;16.23;;;8.77;;
7511;SDS011;9999;48.780;9.146;2023-02-24T03:40:24;15.30;;;7.90;;
7511;SDS011;9999;48.780;9.146;2023-02-24T03:43:02;16.73;;;9.30;;
7511;SDS011;9999;48.780;9.146;2023-02-24T03:45:33;15.30;;;9.10;;
7511;SDS011;9999;48.780;9.146;2023-02-24T03:48:03;22.47;;;8.83;;
7511;SDS011;9999;48.780;9.146;2023-02-24T03:50:33;19.13;;;8.90;;
7511;SDS011;9999;48.780;9.146;2023-02-24T03:53:22;16.43;;;8.70;;
7511;SDS011;9999;48.780;9.146;2023-02-24T03:56:02;14.90;;;7.93;;
7511;SDS011;9999;48.780;9.146;2023-02-24T03:58:44;18.90;;;9.63;;
7511;SDS011;9999;48.780;9.146;2023-02-24T04:01:25;21.00;;;9.33;;
7511;SDS011;9999;48.780;9.146;2023-02-24T04:03:59;20.30;;;9.57;;
7511;SDS011;9999;48.780;9.146;2023-02-24T04:06:59;18.30;;;8.50;;
7511;SDS011;9999;48.780;9.146;2023-02-24T04:09:32;17.80;;;8.80;;
7511;SDS011;9999;48.780;9.146;2023-02-24T04:12:10;16.30;;;9.17;;
7511;SDS011;9999;48.780;9.146;2023-02-24T04:14:45;17.60;;;9.63;;
7511;SDS011;9999;48.780;9.146;2023-02-24T04:17:18;23.57;;;8.73;;
7511;SDS011;9999;48.780;9.146;2023-02-24T04:19:49;15.00;;;8.40;;
7511;SDS011;9999;48.780;9.146;2023-02-24T04:22:21;16.90;;;8.17;;
7511;SDS011;9999;48.780;9.146;2023-02-24T04:24:52;19.77;;;10.10;;
7511;SDS011;9999;48.780;9.146;2023-02-24T04:27:23;22.00;;;9.73;;
7511;SDS011;9999;48.780;9.146;2023-02-24T04:29:59;16.93;;;8.57;;
7511;SDS011;9999;48.780;9.146;2023-02-24T04:32:29;18.37;;;10.30;;
7511;SDS011;9999;48.780;9.146;2023-02-24T04:35:00;21.47;;;10.57;;
7511;SDS011;9999;48.780;9.146;2023-02-24T04:37:30;24.93;;;11.00;;
7511;SDS011;9999;48.780;9.146;2023-02-24T04:39:58;18.93;;;8.77;;
7511;SDS011;9999;48.780;9.146;2023-02-24T04:42:26;22.30;;;10.93;;
7511;SDS011;9999;48.780;9.146;2023-02-24T04:44:53;25.23;;;11.23;;
7511;SDS011;9999;48.780;9.146;2023-02-24T04:47:22;21.50;;;9.80;;
7511;SDS011;9999;48.780;9.146;2023-02-24T04:49:52;21.17;;;9.67;;
7511;SDS011;9999;48.780;9.146;2023-02-24T04:52:19;21.77;;;10.07;;
7511;SDS011;9999;48.780;9.146;2023-02-24T04:54:47;17.87;;;8.80;;
7511;SDS011;9999;48.780;9.146;2023-02-24T04:57:14;20.00;;;9.93;;
7511;SDS011;9999;48.780;9.146;2023-02-24T04:59:41;19.97;;;9.40;;
7511;SDS011;9999;48.780;9.146;2023-02-24T05:02:08;26.23;;;10.70;;
7511;SDS011;9999;48.780;9.146;2023-02-24T05:04:35;24.07;;;10.93;;
7511;SDS011;9999;48.780;9.146;2023-02-24T05:07:02;22.00;;;9.30;;
7511;SDS011;9999;48.780;9.146;2023-02-24T05:09:29;21.63;;;10.30;;
7511;SDS011;9999;48.780;9.146;2023-02-24T05:11:57;28.47;;;11.67;;
7511;SDS011;9999;48.780;9.146;2023-02-24T05:14:25;26.23;;;12.50;;
7511;SDS011;9999;48.780;9.146;2023-02-24T05:16:51;17.93;;;10.30;;
7511;SDS011;9999;48.780;9.146;2023-02-24T05:19:24;23.20;;;10.73;;
7511;SDS011;9999;48.780;9.146;2023-02-24T05:22:08;25.20;;;11.83;;
7511;SDS011;9999;48.780;9.146;2023-02-24T05:24:38;30.10;;;11.33;;
7511;SDS011;9999;48.780;9.146;2023-02-24T05:27:06;26.80;;;11.97;;
7511;SDS011;9999;48.780;9.146;2023-02-24T05:29:33;21.77;;;9.97;;
7511;SDS011;9999;48.780;9.146;2023-02-24T05:32:01;24.63;;;11.40;;
7511;SDS011;9999;48.780;9.146;2023-02-24T05:34:30;28.57;;;12.30;;
7511;SDS011;9999;48.780;9.146;2023-02-24T05:36:58;25.47;;;11.67;;
7511;SDS011;9999;48.780;9.146;2023-02-24T05:39:28;24.90;;;11.10;;
7511;SDS011;9999;48.780;9.146;2023-02-24T05:41:55;27.57;;;11.13;;
7511;SDS011;9999;48.780;9.146;2023-02-24T05:44:24;30.87;;;10.57;;
7511;SDS011;9999;48.780;9.146;2023-02-24T05:46:52;30.43;;;11.80;;
7511;SDS011;9999;48.780;9.146;2023-02-24T05:49:22;25.37;;;10.80;;
7511;SDS011;9999;48.780;9.146;2023-02-24T05:51:52;22.60;;;10.30;;
7511;SDS011;9999;48.780;9.146;2023-02-24T05:54:21;25.57;;;12.03;;
7511;SDS011;9999;48.780;9.146;2023-02-24T05:56:50;30.73;;;12.43;;
7511;SDS011;9999;48.780;9.146;2023-02-24T05:59:16;23.37;;;10.60;;
7511;SDS011;9999;48.780;9.146;2023-02-24T06:01:47;22.53;;;11.43;;
7511;SDS011;9999;48.780;9.146;2023-02-24T06:04:18;24.93;;;11.57;;
7511;SDS011;9999;48.780;9.146;2023-02-24T06:07:03;27.07;;;10.00;;
7511;SDS011;9999;48.780;9.146;2023-02-24T06:09:30;24.20;;;11.33;;
7511;SDS011;9999;48.780;9.146;2023-02-24T06:11:58;27.67;;;11.80;;
7511;SDS011;9999;48.780;9.146;2023-02-24T06:14:26;29.57;;;11.13;;
7511;SDS011;9999;48.780;9.146;2023-02-24T06:16:55;26.60;;;11.20;;
7511;SDS011;9999;48.780;9.146;2023-02-24T06:19:22;24.33;;;11.80;;
7511;SDS011;9999;48.780;9.146;2023-02-24T06:21:49;22.43;;;11.10;;
7511;SDS011;9999;48.780;9.146;2023-02-24T06:24:16;21.00;;;11.00;;
7511;SDS011;9999;48.780;9.146;2023-02-24T06:26:43;30.37;;;12.63;;
7511;SDS011;9999;48.780;9.146;2023-02-24T06:29:11;25.57;;;10.27;;
7511;SDS011;9999;48.780;9.146;2023-02-24T06:31:39;26.17;;;11.43;;
7511;SDS011;9999;48.780;9.146;2023-02-24T06:34:07;31.53;;;12.50;;
7511;SDS011;9999;48.780;9.146;2023-02-24T06:36:36;23.47;;;11.03;;
7511;SDS011;9999;48.780;9.146;2023-02-24T06:39:03;30.17;;;12.97;;
7511;SDS011;9999;48.780;9.146;2023-02-24T06:41:32;26.03;;;10.70;;
7511;SDS011;9999;48.780;9.146;2023-02-24T06:43:59;26.67;;;12.33;;
7511;SDS011;9999;48.780;9.146;2023-02-24T06:46:26;26.33;;;10.97;;
7511;SDS011;9999;48.780;9.146;2023-02-24T06:48:53;24.10;;;10.93;;
7511;SDS011;9999;48.780;9.146;2023-02-24T06:51:23;27.50;;;11.73;;
7511;SDS011;9999;48.780;9.146;2023-02-24T06:53:54;31.17;;;11.93;;
7511;SDS011;9999;48.780;9.146;2023-02-24T06:56:21;27.50;;;12.47;;
7511;SDS011;9999;48.780;9.146;2023-02-24T06:58:48;30.90;;;13.43;;
7511;SDS011;9999;48.780;9.146;2023-02-24T07:01:17;37.60;;;11.80;;
7511;SDS011;9999;48.780;9.146;2023-02-24T07:03:46;34.10;;;12.53;;
7511;SDS011;9999;48.780;9.146;2023-02-24T07:06:29;32.70;;;12.93;;
7511;SDS011;9999;48.780;9.146;2023-02-24T07:08:58;34.00;;;13.73;;
7511;SDS011;9999;48.780;9.146;2023-02-24T07:11:29;29.83;;;12.07;;
7511;SDS011;9999;48.780;9.146;2023-02-24T07:13:56;34.80;;;14.20;;
7511;SDS011;9999;48.780;9.146;2023-02-24T07:16:24;31.40;;;11.87;;
7511;SDS011;9999;48.780;9.146;2023-02-24T07:18:53;27.93;;;12.53;;
7511;SDS011;9999;48.780;9.146;2023-02-24T07:21:21;25.67;;;12.53;;
7511;SDS011;9999;48.780;9.146;2023-02-24T07:23:50;35.50;;;14.27;;
7511;SDS011;9999;48.780;9.146;2023-02-24T07:26:21;36.33;;;13.13;;
7511;SDS011;9999;48.780;9.146;2023-02-24T07:28:50;32.17;;;14.27;;
7511;SDS011;9999;48.780;9.146;2023-02-24T07:31:19;29.77;;;14.53;;
7511;SDS011;9999;48.780;9.146;2023-02-24T07:33:48;37.23;;;14.53;;
7511;SDS011;9999;48.780;9.146;2023-02-24T07:36:19;41.07;;;13.70;;
7511;SDS011;9999;48.780;9.146;2023-02-24T07:38:50;36.87;;;14.87;;
7511;SDS011;9999;48.780;9.146;2023-02-24T07:41:18;33.00;;;14.93;;
7511;SDS011;9999;48.780;9.146;2023-02-24T07:43:50;25.37;;;11.67;;
7511;SDS011;9999;48.780;9.146;2023-02-24T07:46:19;30.00;;;12.93;;
7511;SDS011;9999;48.780;9.146;2023-02-24T07:48:48;38.77;;;13.67;;
7511;SDS011;9999;48.780;9.146;2023-02-24T07:51:17;35.50;;;14.27;;
7511;SDS011;9999;48.780;9.146;2023-02-24T07:53:47;34.40;;;14.23;;
7511;SDS011;9999;48.780;9.146;2023-02-24T07:56:16;33.57;;;13.00;;
7511;SDS011;9999;48.780;9.146;2023-02-24T07:58:42;28.20;;;13.60;;
7511;SDS011;9999;48.780;9.146;2023-02-24T08:01:10;30.77;;;13.67;;
7511;SDS011;9999;48.780;9.146;2023-02-24T08:03:46;28.53;;;11.97;;
7511;SDS011;9999;48.780;9.146;2023-02-24T08:06:14;37.83;;;13.80;;
7511;SDS011;9999;48.780;9.146;2023-02-24T08:08:50;33.27;;;13.60;;
7511;SDS011;9999;48.780;9.146;2023-02-24T08:11:36;31.30;;;14.03;;
7511;SDS011;9999;48.780;9.146;2023-02-24T08:14:06;28.77;;;12.97;;
7511;SDS011;9999;48.780;9.146;2023-02-24T08:16:38;39.00;;;15.40;;
7511;SDS011;9999;48.780;9.146;2023-02-24T08:19:05;28.50;;;13.40;;
7511;SDS011;9999;48.780;9.146;2023-02-24T08:21:32;29.90;;;13.07;;
7511;SDS011;9999;48.780;9.146;2023-02-24T08:24:02;29.10;;;10.80;;
7511;SDS011;9999;48.780;9.146;2023-02-24T08:26:30;24.10;;;10.07;;
7511;SDS011;9999;48.780;9.146;2023-02-24T08:28:58;25.17;;;10.77;;
7511;SDS011;9999;48.780;9.146;2023-02-24T08:31:24;16.63;;;8.27;;
7511;SDS011;9999;48.780;9.146;2023-02-24T08:33:51;24.47;;;10.73;;
7511;SDS011;9999;48.780;9.146;2023-02-24T08:36:20;21.40;;;9.37;;
7511;SDS011;9999;48.780;9.146;2023-02-24T08:38:50;15.97;;;8.30;;
7511;SDS011;9999;48.780;9.146;2023-02-24T08:41:18;24.07;;;8.87;;
7511;SDS011;9999;48.780;9.146;2023-02-24T08:43:53;17.83;;;8.77;;
7511;SDS011;9999;48.780;9.146;2023-02-24T08:46:22;17.80;;;9.17;;
7511;SDS011;9999;48.780;9.146;2023-02-24T08:48:51;21.90;;;9.43;;
7511;SDS011;9999;48.780;9.146;2023-02-24T08:51:21;16.47;;;9.03;;
7511;SDS011;9999;48.780;9.146;2023-02-24T08:53:53;18.47;;;9.40;;
7511;SDS011;9999;48.780;9.146;2023-02-24T08:56:22;17.00;;;7.87;;
7511;SDS011;9999;48.780;9.146;2023-02-24T08:58:51;15.63;;;7.43;;
7511;SDS011;9999;48.780;9.146;2023-02-24T09:01:23;15.33;;;7.37;;
7511;SDS011;9999;48.780;9.146;2023-02-24T09:03:55;14.50;;;6.93;;
7511;SDS011;9999;48.780;9.146;2023-02-24T09:06:25;18.27;;;7.10;;
7511;SDS011;9999;48.780;9.146;2023-02-24T09:09:00;10.53;;;6.10;;
7511;SDS011;9999;48.780;9.146;2023-02-24T09:11:42;16.60;;;6.97;;
7511;SDS011;9999;48.780;9.146;2023-02-24T09:14:11;14.10;;;6.37;;
7511;SDS011;9999;48.780;9.146;2023-02-24T09:16:43;18.73;;;7.13;;
7511;SDS011;9999;48.780;9.146;2023-02-24T09:19:31;8.80;;;5.90;;
7511;SDS011;9999;48.780;9.146;2023-02-24T09:22:19;9.57;;;6.10;;
7511;SDS011;9999;48.780;9.146;2023-02-24T09:24:55;10.00;;;5.07;;
7511;SDS011;9999;48.780;9.146;2023-02-24T09:27:42;12.90;;;6.10;;
7511;SDS011;9999;48.780;9.146;2023-02-24T09:30:12;11.30;;;5.43;;
7511;SDS011;9999;48.780;9.146;2023-02-24T09:33:03;11.77;;;4.70;;
7511;SDS011;9999;48.780;9.146;2023-02-24T09:35:42;9.47;;;5.30;;
7511;SDS011;9999;48.780;9.146;2023-02-24T09:38:11;14.73;;;7.03;;
7511;SDS011;9999;48.780;9.146;2023-02-24T09:40:40;14.90;;;6.77;;
7511;SDS011;9999;48.780;9.146;2023-02-24T09:43:14;16.87;;;7.23;;
7511;SDS011;9999;48.780;9.146;2023-02-24T09:45:55;16.53;;;7.77;;
7511;SDS011;9999;48.780;9.146;2023-02-24T09:48:31;16.90;;;8.13;;
7511;SDS011;9999;48.780;9.146;2023-02-24T09:51:09;21.40;;;7.13;;
7511;SDS011;9999;48.780;9.146;2023-02-24T09:53:45;16.70;;;7.47;;
7511;SDS011;9999;48.780;9.146;2023-02-24T09:56:17;15.97;;;7.40;;
7511;SDS011;9999;48.780;9.146;2023-02-24T09:58:54;15.60;;;6.33;;
7511;SDS011;9999;48.780;9.146;2023-02-24T10:01:47;19.40;;;6.40;;
7511;SDS011;9999;48.780;9.146;2023-02-24T10:07:13;18.10;;;6.73;;
7511;SDS011;9999;48.780;9.146;2023-02-24T10:09:45;12.47;;;6.33;;
7511;SDS011;9999;48.780;9.146;2023-02-24T10:12:31;15.50;;;5.53;;
7511;SDS011;9999;48.780;9.146;2023-02-24T10:15:07;19.30;;;6.57;;
7511;SDS011;9999;48.780;9.146;2023-02-24T10:17:45;21.03;;;8.60;;
7511;SDS011;9999;48.780;9.146;2023-02-24T10:20:19;18.60;;;9.07;;
7511;SDS011;9999;48.780;9.146;2023-02-24T10:22:56;18.20;;;6.07;;
7511;SDS011;9999;48.780;9.146;2023-02-24T10:25:32;20.30;;;6.93;;
7511;SDS011;9999;48.780;9.146;2023-02-24T10:28:19;16.53;;;6.07;;
7511;SDS011;9999;48.780;9.146;2023-02-24T10:31:00;9.40;;;5.33;;
7511;SDS011;9999;48.780;9.146;2023-02-24T10:33:35;15.73;;;6.53;;
7511;SDS011;9999;48.780;9.146;2023-02-24T10:36:12;11.13;;;5.07;;
7511;SDS011;9999;48.780;9.146;2023-02-24T10:38:41;12.73;;;6.40;;
7511;SDS011;9999;48.780;9.146;2023-02-24T10:41:09;12.23;;;5.23;;
7511;SDS011;9999;48.780;9.146;2023-02-24T10:43:37;17.80;;;6.13;;
7511;SDS011;9999;48.780;9.146;2023-02-24T10:46:17;12.03;;;5.90;;
7511;SDS011;9999;48.780;9.146;2023-02-24T10:48:50;13.43;;;5.07;;
7511;SDS011;9999;48.780;9.146;2023-02-24T10:51:27;11.13;;;6.33;;
7511;SDS011;9999;48.780;9.146;2023-02-24T10:54:03;9.47;;;4.53;;
7511;SDS011;9999;48.780;9.146;2023-02-24T10:56:54;12.60;;;5.73;;
7511;SDS011;9999;48.780;9.146;2023-02-24T10:59:39;17.07;;;6.67;;
7511;SDS011;9999;48.780;9.146;2023-02-24T11:02:23;19.00;;;7.47;;
7511;SDS011;9999;48.780;9.146;2023-02-24T11:05:05;19.37;;;8.27;;
7511;SDS011;9999;48.780;9.146;2023-02-24T11:08:04;20.57;;;6.90;;
7511;SDS011;9999;48.780;9.146;2023-02-24T11:10:37;28.70;;;9.97;;
7511;SDS011;9999;48.780;9.146;2023-02-24T11:13:17;21.43;;;8.40;;
7511;SDS011;9999;48.780;9.146;2023-02-24T11:16:02;18.33;;;8.97;;
7511;SDS011;9999;48.780;9.146;2023-02-24T11:18:50;21.03;;;8.10;;
7511;SDS011;9999;48.780;9.146;2023-02-24T11:21:21;19.33;;;7.93;;
7511;SDS011;9999;48.780;9.146;2023-02-24T11:23:51;25.27;;;10.90;;
7511;SDS011;9999;48.780;9.146;2023-02-24T11:26:22;24.90;;;10.07;;
7511;SDS011;9999;48.780;9.146;2023-02-24T11:28:58;18.77;;;8.30;;
7511;SDS011;9999;48.780;9.146;2023-02-24T11:31:41;20.37;;;8.63;;
7511;SDS011;9999;48.780;9.146;2023-02-24T11:34:17;22.53;;;7.07;;
7511;SDS011;9999;48.780;9.146;2023-02-24T11:36:50;22.23;;;8.30;;
7511;SDS011;9999;48.780;9.146;2023-02-24T11:39:40;23.27;;;8.67;;
7511;SDS011;9999;48.780;9.146;2023-02-24T11:42:19;23.50;;;8.67;;
7511;SDS011;9999;48.780;9.146;2023-02-24T11:44:50;25.70;;;8.63;;
7511;SDS011;9999;48.780;9.146;2023-02-24T11:47:21;23.83;;;8.03;;
7511;SDS011;9999;48.780;9.146;2023-02-24T11:49:57;20.80;;;7.80;;
7511;SDS011;9999;48.780;9.146;2023-02-24T11:52:31;21.27;;;8.90;;
7511;SDS011;9999;48.780;9.146;2023-02-24T11:55:04;18.40;;;7.60;;
7511;SDS011;9999;48.780;9.146;2023-02-24T11:57:44;16.77;;;7.03;;
7511;SDS011;9999;48.780;9.146;2023-02-24T12:00:18;17.00;;;7.60;;
7511;SDS011;9999;48.780;9.146;2023-02-24T12:02:49;16.33;;;7.50;;
7511;SDS011;9999;48.780;9.146;2023-02-24T12:05:23;17.00;;;7.33;;
7511;SDS011;9999;48.780;9.146;2023-02-24T12:07:53;16.70;;;6.63;;
7511;SDS011;9999;48.780;9.146;2023-02-24T12:10:23;12.83;;;6.47;;
7511;SDS011;9999;48.780;9.146;2023-02-24T12:12:56;13.83;;;6.00;;
7511;SDS011;9999;48.780;9.146;2023-02-24T12:15:28;13.33;;;6.03;;
7511;SDS011;9999;48.780;9.146;2023-02-24T12:17:59;19.23;;;6.80;;
7511;SDS011;9999;48.780;9.146;2023-02-24T12:20:32;16.93;;;8.03;;
7511;SDS011;9999;48.780;9.146;2023-02-24T12:23:08;15.77;;;6.93;;
7511;SDS011;9999;48.780;9.146;2023-02-24T12:25:47;12.30;;;5.83;;
7511;SDS011;9999;48.780;9.146;2023-02-24T12:28:25;13.10;;;5.93;;
7511;SDS011;9999;48.780;9.146;2023-02-24T12:31:06;12.40;;;5.60;;
7511;SDS011;9999;48.780;9.146;2023-02-24T12:33:45;8.68;;;4.72;;
7511;SDS011;9999;48.780;9.146;2023-02-24T12:36:23;13.03;;;6.50;;
7511;SDS011;9999;48.780;9.146;2023-02-24T12:39:01;10.87;;;5.07;;
7511;SDS011;9999;48.780;9.146;2023-02-24T12:41:45;11.30;;;6.00;;
7511;SDS011;9999;48.780;9.146;2023-02-24T12:44:25;10.07;;;4.87;;
7511;SDS011;9999;48.780;9.146;2023-02-24T12:47:00;9.60;;;3.38;;
7511;SDS011;9999;48.780;9.146;2023-02-24T12:49:38;10.02;;;3.90;;
7511;SDS011;9999;48.780;9.146;2023-02-24T12:52:25;7.57;;;4.05;;
7511;SDS011;9999;48.780;9.146;2023-02-24T12:55:00;8.40;;;3.80;;
7511;SDS011;9999;48.780;9.146;2023-02-24T12:57:39;14.18;;;4.90;;
7511;SDS011;9999;48.780;9.146;2023-02-24T13:00:15;8.75;;;4.07;;
7511;SDS011;9999;48.780;9.146;2023-02-24T13:02:50;8.40;;;3.13;;
7511;SDS011;9999;48.780;9.146;2023-02-24T13:05:23;6.40;;;4.03;;
7511;SDS011;9999;48.780;9.146;2023-02-24T13:08:10;7.68;;;3.47;;
7511;SDS011;9999;48.780;9.146;2023-02-24T13:10:48;5.60;;;3.10;;
7511;SDS011;9999;48.780;9.146;2023-02-24T13:13:28;10.95;;;2.80;;
7511;SDS011;9999;48.780;9.146;2023-02-24T13:15:59;13.70;;;5.00;;
7511;SDS011;9999;48.780;9.146;2023-02-24T13:18:26;5.55;;;3.05;;
7511;SDS011;9999;48.780;9.146;2023-02-24T13:21:05;8.23;;;3.40;;
7511;SDS011;9999;48.780;9.146;2023-02-24T13:23:50;8.30;;;3.88;;
7511;SDS011;9999;48.780;9.146;2023-02-24T13:26:21;8.73;;;3.55;;
7511;SDS011;9999;48.780;9.146;2023-02-24T13:28:56;5.83;;;3.37;;
7511;SDS011;9999;48.780;9.146;2023-02-24T13:31:24;8.15;;;3.60;;
7511;SDS011;9999;48.780;9.146;2023-02-24T13:33:52;12.95;;;3.72;;
7511;SDS011;9999;48.780;9.146;2023-02-24T13:36:20;11.98;;;4.30;;
7511;SDS011;9999;48.780;9.146;2023-02-24T13:38:48;8.07;;;4.35;;
7511;SDS011;9999;48.780;9.146;2023-02-24T13:41:19;9.98;;;3.42;;
7511;SDS011;9999;48.780;9.146;2023-02-24T13:44:00;7.57;;;3.67;;
7511;SDS011;9999;48.780;9.146;2023-02-24T13:46:30;10.95;;;3.78;;
7511;SDS011;9999;48.780;9.146;2023-02-24T13:49:21;10.38;;;3.38;;
7511;SDS011;9999;48.780;9.146;2023-02-24T13:51:56;7.55;;;3.65;;
7511;SDS011;9999;48.780;9.146;2023-02-24T13:54:30;11.32;;;3.65;;
7511;SDS011;9999;48.780;9.146;2023-02-24T13:57:21;9.32;;;3.75;;
7511;SDS011;9999;48.780;9.146;2023-02-24T14:00:02;7.10;;;3.97;;
7511;SDS011;9999;48.780;9.146;2023-02-24T14:02:38;9.65;;;3.53;;
7511;SDS011;9999;48.780;9.146;2023-02-24T14:05:08;11.02;;;4.15;;
7511;SDS011;9999;48.780;9.146;2023-02-24T14:07:41;8.10;;;3.53;;
7511;SDS011;9999;48.780;9.146;2023-02-24T14:10:13;14.52;;;5.45;;
7511;SDS011;9999;48.780;9.146;2023-02-24T14:12:43;11.70;;;4.88;;
7511;SDS011;9999;48.780;9.146;2023-02-24T14:15:15;12.25;;;5.93;;
7511;SDS011;9999;48.780;9.146;2023-02-24T14:17:53;12.05;;;5.07;;
7511;SDS011;9999;48.780;9.146;2023-02-24T14:20:21;12.50;;;5.38;;
7511;SDS011;9999;48.780;9.146;2023-02-24T14:22:51;13.10;;;5.65;;
7511;SDS011;9999;48.780;9.146;2023-02-24T14:25:19;23.30;;;6.15;;
7511;SDS011;9999;48.780;9.146;2023-02-24T14:27:48;10.90;;;5.72;;
7511;SDS011;9999;48.780;9.146;2023-02-24T14:30:23;17.00;;;5.50;;
7511;SDS011;9999;48.780;9.146;2023-02-24T14:32:54;16.38;;;6.07;;
7511;SDS011;9999;48.780;9.146;2023-02-24T14:35:26;10.07;;;5.80;;
7511;SDS011;9999;48.780;9.146;2023-02-24T14:37:57;10.98;;;5.32;;
7511;SDS011;9999;48.780;9.146;2023-02-24T14:40:24;8.97;;;5.00;;
7511;SDS011;9999;48.780;9.146;2023-02-24T14:42:52;8.55;;;4.32;;
7511;SDS011;9999;48.780;9.146;2023-02-24T14:45:20;10.50;;;4.63;;
7511;SDS011;9999;48.780;9.146;2023-02-24T14:47:50;11.75;;;4.78;;
7511;SDS011;9999;48.780;9.146;2023-02-24T14:50:18;6.35;;;3.45;;
7511;SDS011;9999;48.780;9.146;2023-02-24T14:52:49;10.17;;;4.40;;
7511;SDS011;9999;48.780;9.146;2023-02-24T14:55:19;9.88;;;4.53;;
7511;SDS011;9999;48.780;9.146;2023-02-24T14:57:49;11.27;;;5.18;;
7511;SDS011;9999;48.780;9.146;2023-02-24T15:00:20;10.93;;;5.13;;
7511;SDS011;9999;48.780;9.146;2023-02-24T15:02:52;7.82;;;3.80;;
7511;SDS011;9999;48.780;9.146;2023-02-24T15:05:23;14.77;;;5.78;;
7511;SDS011;9999;48.780;9.146;2023-02-24T15:07:50;14.40;;;5.80;;
7511;SDS011;9999;48.780;9.146;2023-02-24T15:10:18;10.88;;;5.78;;
7511;SDS011;9999;48.780;9.146;2023-02-24T15:12:47;7.67;;;3.60;;
7511;SDS011;9999;48.780;9.146;2023-02-24T15:15:17;15.25;;;5.55;;
7511;SDS011;9999;48.780;9.146;2023-02-24T15:17:48;8.27;;;4.30;;
7511;SDS011;9999;48.780;9.146;2023-02-24T15:20:23;10.07;;;5.00;;
7511;SDS011;9999;48.780;9.146;2023-02-24T15:22:51;8.00;;;5.47;;
7511;SDS011;9999;48.780;9.146;2023-02-24T15:25:19;11.20;;;4.60;;
7511;SDS011;9999;48.780;9.146;2023-02-24T15:27:49;10.45;;;5.05;;
7511;SDS011;9999;48.780;9.146;2023-02-24T15:30:25;8.63;;;3.93;;
7511;SDS011;9999;48.780;9.146;2023-02-24T15:33:00;6.80;;;4.15;;
7511;SDS011;9999;48.780;9.146;2023-02-24T15:35:28;5.70;;;3.35;;
7511;SDS011;9999;48.780;9.146;2023-02-24T15:37:57;7.93;;;3.63;;
7511;SDS011;9999;48.780;9.146;2023-02-24T15:40:25;8.27;;;3.60;;